Flight Track Log - Related Links

Times and Time Zones

All times are in EDT time to prevent confusion due to time zone crossing. See the N1113X flight status page for this flight to view local times or setup timezone preferences in your user account.

Time Position Orientation Groundspeed Altitude Reporting Facility
EDT Latitude Longitude Course Direction KTS MPH feet Rate Location/Type
Tue 01:56:00 PM 43.2553 -114.2516 192° South  Level FlightAware Approximate
Tue 01:57:00 PM 43.2063 -114.2662 192° South  Level FlightAware Approximate
Tue 01:58:00 PM 43.1574 -114.2807 192° South  Level FlightAware Approximate
Tue 01:59:00 PM 43.1085 -114.2952 192° South  Level FlightAware Approximate
Tue 01:59:00 PM 43.2250 -114.3072 192° South 193 222 9,100  Level Salt Lake Center
Tue 02:00:00 PM 43.0596 -114.3097 192° South  Level FlightAware Approximate
Tue 02:00:00 PM 43.1757 -114.3188 190° South  Level FlightAware Approximate
Tue 02:00:02 PM 43.1872 -114.3269 190° South 156 180 9,500  Level Salt Lake Center
Tue 02:01:00 PM 43.0107 -114.3242 192° South  Level FlightAware Approximate
Tue 02:01:04 PM 43.1467 -114.3522 204° Southwest 154 177 9,900  Level Salt Lake Center
Tue 02:02:00 PM 42.9617 -114.3386 192° South  Level FlightAware Approximate
Tue 02:02:06 PM 43.1036 -114.3772 203° Southwest 158 182 9,900  Level Salt Lake Center
Tue 02:03:00 PM 42.9128 -114.3530 192° South  Level FlightAware Approximate
Tue 02:03:08 PM 43.0569 -114.3942 195° South 166 191 9,900  Level Salt Lake Center
Tue 02:04:00 PM 42.8639 -114.3674 192° South  Level FlightAware Approximate
Tue 02:04:10 PM 43.0047 -114.4044 188° South 178 205 9,900  Level Salt Lake Center
Tue 02:05:12 PM 42.9539 -114.4119 186° South 176 203 9,900  Level Salt Lake Center
Tue 02:06:14 PM 42.9072 -114.4222 189° South 176 203 9,900  Level Salt Lake Center
Tue 02:07:16 PM 42.8567 -114.4297 186° South 176 203 9,900 48 Level Salt Lake Center
Tue 02:08:18 PM 42.8050 -114.4392 188° South 179 206 10,000 242 Climbing Salt Lake Center
Tue 02:09:20 PM 42.7556 -114.4464 186° South 174 200 10,400 435 Climbing Salt Lake Center
Tue 02:10:22 PM 42.7083 -114.4542 187° South 167 192 10,900 484 Climbing Salt Lake Center
Tue 02:11:24 PM 42.6664 -114.4606 186° South 151 174 11,400 429 Climbing Salt Lake Center
Tue 02:12:28 PM 42.6250 -114.4681 188° South 144 166 11,800 242 Climbing Salt Lake Center
Tue 02:13:28 PM 42.5867 -114.4733 186° South 143 165 11,900 49 Climbing Salt Lake Center
Tue 02:14:30 PM 42.5400 -114.4817 187° South 156 180 11,900  Level Salt Lake Center
Tue 02:15:32 PM 42.4900 -114.4911 188° South 168 193 11,900  Level Salt Lake Center
Tue 02:16:35 PM 42.4453 -114.5197 205° Southwest 171 197 11,900  Level Salt Lake Center
Tue 02:17:37 PM 42.4025 -114.5522 209° Southwest 171 197 11,900  Level Salt Lake Center
Tue 02:18:39 PM 42.3592 -114.5844 209° Southwest 170 196 11,900  Level Salt Lake Center
Tue 02:19:41 PM 42.3194 -114.6147 209° Southwest 170 196 11,900  Level Salt Lake Center
Tue 02:20:43 PM 42.2756 -114.6469 209° Southwest 171 197 11,900  Level Salt Lake Center
Tue 02:21:45 PM 42.2322 -114.6800 209° Southwest 170 196 11,900  Level Salt Lake Center
Tue 02:22:47 PM 42.1886 -114.7133 210° Southwest 173 199 11,900  Level Salt Lake Center
Tue 02:23:49 PM 42.1442 -114.7469 209° Southwest 174 200 11,900  Level Salt Lake Center
Tue 02:24:51 PM 42.1011 -114.7792 209° Southwest 174 200 11,900  Level Salt Lake Center
Tue 02:25:53 PM 42.0597 -114.8111 210° Southwest 174 200 11,900 48 Level Salt Lake Center
Tue 02:26:55 PM 42.0153 -114.8433 208° Southwest 174 200 12,000  Climbing Salt Lake Center
Tue 02:27:57 PM 41.9706 -114.8764 209° Southwest 175 201 11,900  Descending Salt Lake Center
Tue 02:28:59 PM 41.9264 -114.9092 209° Southwest 174 200 12,000 48 Climbing Salt Lake Center
Tue 02:30:01 PM 41.8833 -114.9425 210° Southwest 178 205 12,000 -48 Level Salt Lake Center
Tue 02:31:03 PM 41.8347 -114.9772 208° Southwest 177 204 11,900  Descending Salt Lake Center
Tue 02:32:05 PM 41.7911 -115.0069 207° Southwest 182 209 12,000  Climbing Salt Lake Center
Tue 02:33:07 PM 41.7500 -115.0394 211° Southwest 181 208 11,900  Descending Salt Lake Center
Tue 02:34:09 PM 41.7000 -115.0747 208° Southwest 180 207 12,000  Climbing Salt Lake Center
Tue 02:35:11 PM 41.6581 -115.1069 210° Southwest 181 208 11,900 -48 Descending Salt Lake Center
Tue 02:36:13 PM 41.6064 -115.1450 209° Southwest 187 215 11,900  Level Salt Lake Center
Tue 02:37:15 PM 41.5644 -115.1769 210° Southwest 184 212 11,900 48 Level Salt Lake Center
Tue 02:38:17 PM 41.5150 -115.2139 209° Southwest 181 208 12,000 48 Climbing Salt Lake Center
Tue 02:39:19 PM 41.4711 -115.2447 208° Southwest 184 212 12,000  Level Salt Lake Center
Tue 02:40:21 PM 41.4211 -115.2825 210° Southwest 184 212 12,000 48 Level Salt Lake Center
Tue 02:41:23 PM 41.3792 -115.3167 211° Southwest 185 213 12,100 145 Climbing Salt Lake Center
Tue 02:42:25 PM 41.3314 -115.3508 208° Southwest 179 206 12,300 240 Climbing Salt Lake Center
Tue 02:43:28 PM 41.2928 -115.3783 208° Southwest 172 198 12,600 192 Climbing Salt Lake Center
Tue 02:44:30 PM 41.2461 -115.4094 207° Southwest 168 193 12,700 194 Climbing Salt Lake Center
Tue 02:45:32 PM 41.2092 -115.4403 212° Southwest 167 192 13,000 290 Climbing Salt Lake Center
Tue 02:46:34 PM 41.1700 -115.4675 208° Southwest 165 190 13,300 339 Climbing Salt Lake Center
Tue 02:47:36 PM 41.1258 -115.4994 209° Southwest 163 188 13,700 242 Climbing Salt Lake Center
Tue 02:48:38 PM 41.0889 -115.5269 209° Southwest 161 185 13,800 145 Climbing Salt Lake Center
Tue 02:49:40 PM 41.0456 -115.5583 209° Southwest 159 183 14,000 97 Climbing Salt Lake Center
Tue 02:50:42 PM 41.0047 -115.5894 210° Southwest 166 191 14,000  Level Salt Lake Center
Tue 02:51:44 PM 40.9539 -115.6256 208° Southwest 177 204 14,000  Level Salt Lake Center
Tue 02:52:46 PM 40.9106 -115.6567 208° Southwest 181 208 14,000  Level Salt Lake Center
Tue 02:53:48 PM 40.8597 -115.6939 209° Southwest 185 213 14,000  Level Salt Lake Center
Tue 02:54:50 PM 40.8167 -115.7233 207° Southwest 184 212 14,000  Level Salt Lake Center
Tue 02:55:52 PM 40.7678 -115.7592 209° Southwest 182 209 14,000  Level Salt Lake Center
Tue 02:56:54 PM 40.7533 -115.8161 252° West 182 209 14,000  Level Salt Lake Center
Tue 02:57:56 PM 40.7439 -115.8775 259° West 180 207 14,000  Level Salt Lake Center
Tue 02:58:58 PM 40.7325 -115.9481 258° West 178 205 14,000  Level Salt Lake Center
Tue 03:00:00 PM 40.7222 -116.0092 258° West 178 205 14,000  Level Salt Lake Center
Tue 03:01:02 PM 40.7117 -116.0808 259° West 178 205 14,000  Level Salt Lake Center
Tue 03:02:04 PM 40.7014 -116.1414 257° West 178 205 14,000  Level Salt Lake Center
Tue 03:03:06 PM 40.6892 -116.2122 257° West 178 205 14,000 -48 Level Salt Lake Center
Tue 03:04:08 PM 40.6786 -116.2733 257° West 178 205 13,900 -48 Descending Salt Lake Center
Tue 03:05:10 PM 40.6681 -116.3444 259° West 178 205 13,900  Level Salt Lake Center
Tue 03:06:12 PM 40.6578 -116.4061 258° West 179 206 13,900  Level Salt Lake Center
Tue 03:07:14 PM 40.6458 -116.4761 257° West 177 204 13,900  Level Salt Lake Center
Tue 03:08:17 PM 40.6361 -116.5369 258° West 177 204 13,900  Level Salt Lake Center
Tue 03:09:19 PM 40.6244 -116.6075 258° West 178 205 13,900  Level Salt Lake Center
Tue 03:10:21 PM 40.6144 -116.6681 258° West 177 204 13,900  Level Salt Lake Center
Tue 03:11:23 PM 40.6025 -116.7392 258° West 178 205 13,900  Level Salt Lake Center
Tue 03:12:25 PM 40.5919 -116.8003 257° West 179 206 13,900  Level Salt Lake Center
Tue 03:13:27 PM 40.5800 -116.8708 257° West 178 205 13,900  Level Salt Lake Center
Tue 03:14:29 PM 40.5697 -116.9297 257° West 176 203 13,900  Level Salt Lake Center
Tue 03:15:31 PM 40.5525 -116.9975 252° West 176 203 13,900  Level Salt Lake Center
Tue 03:16:33 PM 40.5367 -117.0550 250° West 176 203 13,900  Level Salt Lake Center
Tue 03:17:35 PM 40.5194 -117.1233 252° West 176 203 13,900  Level Salt Lake Center
Tue 03:18:37 PM 40.5044 -117.1814 251° West 176 203 13,900  Level Salt Lake Center
Tue 03:19:39 PM 40.4858 -117.2483 250° West 176 203 13,900  Level Salt Lake Center
Tue 03:20:41 PM 40.4708 -117.3067 251° West 176 203 13,900  Level Salt Lake Center
Tue 03:21:43 PM 40.4533 -117.3742 251° West 176 203 13,900  Level Salt Lake Center
Tue 03:22:45 PM 40.4378 -117.4325 251° West 176 203 13,900  Level Salt Lake Center
Tue 03:23:47 PM 40.4194 -117.5000 250° West 178 205 13,900  Level Salt Lake Center
Tue 03:24:49 PM 40.4033 -117.5617 251° West 179 206 13,900  Level Salt Lake Center
Tue 03:25:51 PM 40.3875 -117.6211 251° West 177 204 13,900  Level Salt Lake Center
Tue 03:26:53 PM 40.3706 -117.6825 250° West 174 200 13,900  Level Salt Lake Center
Tue 03:27:55 PM 40.3539 -117.7486 252° West 171 197 13,900  Level Salt Lake Center
Tue 03:28:58 PM 40.3386 -117.8064 251° West 174 200 13,900  Level Salt Lake Center
Tue 03:30:00 PM 40.3222 -117.8653 250° West 178 205 13,900  Level Salt Lake Center
Tue 03:31:02 PM 40.3042 -117.9331 251° West 177 204 13,900  Level Salt Lake Center
Tue 03:32:04 PM 40.2872 -117.9917 249° West 179 206 13,900  Level Salt Lake Center
Tue 03:33:06 PM 40.2689 -118.0594 250° West 178 205 13,900  Level Salt Lake Center
Tue 03:34:08 PM 40.2536 -118.1183 251° West 177 204 13,900  Level Salt Lake Center
Tue 03:35:10 PM 40.2344 -118.1878 250° West 181 208 13,900  Level Salt Lake Center
Tue 03:36:12 PM 40.2194 -118.2461 251° West 177 204 13,900  Level Salt Lake Center
Tue 03:37:14 PM 40.2000 -118.3131 249° West 177 204 13,900  Level Salt Lake Center
Tue 03:38:16 PM 40.1844 -118.3717 251° West 177 204 13,900  Level Salt Lake Center
Tue 03:39:18 PM 40.1664 -118.4386 251° West 176 203 13,900  Level Salt Lake Center
Tue 03:40:20 PM 40.1497 -118.4953 249° West 174 200 13,900 46 Level Salt Lake Center
Tue 03:41:28 PM 40.1325 -118.5628 252° West 175 201 14,000 47 Climbing Oakland Center
Tue 03:42:29 PM 40.1069 -118.6153 238° Southwest 175 201 14,000  Level Oakland Center
Tue 03:43:31 PM 40.0789 -118.6667 235° Southwest 174 200 14,000  Level Oakland Center
Tue 03:44:32 PM 40.0464 -118.7294 236° Southwest 175 201 14,000  Level Oakland Center
Tue 03:45:33 PM 40.0178 -118.7819 235° Southwest 177 204 14,000  Level Oakland Center
Tue 03:46:35 PM 39.9883 -118.8333 233° Southwest 177 204 14,000 -98 Level Oakland Center
Tue 03:47:36 PM 39.9614 -118.8850 236° Southwest 175 201 13,800  Descending Oakland Center
Tue 03:48:38 PM 39.9347 -118.9325 234° Southwest 167 192 14,000 98 Climbing Oakland Center
Tue 03:49:39 PM 39.9081 -118.9817 235° Southwest 166 191 14,000  Level Oakland Center
Tue 03:50:40 PM 39.8803 -119.0311 234° Southwest 168 193 14,000  Level Oakland Center
Tue 03:51:42 PM 39.8531 -119.0806 234° Southwest 169 194 14,000  Level Oakland Center
Tue 03:52:43 PM 39.8258 -119.1311 235° Southwest 172 198 14,000  Level Oakland Center
Tue 03:53:45 PM 39.7942 -119.1892 235° Southwest 165 190 14,000  Level Oakland Center
Tue 03:54:46 PM 39.7675 -119.2356 233° Southwest 161 185 14,000  Level Oakland Center
Tue 03:55:47 PM 39.7417 -119.2842 235° Southwest 163 188 14,000  Level Oakland Center
Tue 03:56:49 PM 39.7133 -119.3333 233° Southwest 168 193 14,000  Level Oakland Center
Tue 03:57:50 PM 39.6875 -119.3844 237° Southwest 170 196 14,000  Level Oakland Center
Tue 03:58:52 PM 39.6578 -119.4342 232° Southwest 173 199 14,000  Level Oakland Center
Tue 03:59:53 PM 39.6289 -119.4847 233° Southwest 174 200 14,000  Level Oakland Center
Tue 04:00:54 PM 39.6019 -119.5386 237° Southwest 177 204 14,000  Level Oakland Center
Tue 04:01:56 PM 39.5667 -119.5986 233° Southwest 176 203 14,000 -57 Level Oakland Center
Tue 04:02:39 PM 39.5500 -119.6333 238° Southwest 175 201 13,900 -58 Descending Northern Cal TRACON
Tue 04:03:39 PM 39.5167 -119.6833 229° Southwest 167 192 13,900  Level Northern Cal TRACON
Tue 04:04:39 PM 39.4833 -119.7333 229° Southwest 184 212 13,900  Level Northern Cal TRACON
Tue 04:05:39 PM 39.4500 -119.7167 159° South 151 174 13,900  Level Northern Cal TRACON
Tue 04:06:39 PM 39.4000 -119.6833 153° Southeast 157 181 13,900 50 Level Northern Cal TRACON
Tue 04:07:39 PM 39.3667 -119.6667 159° South 162 186 14,000  Climbing Northern Cal TRACON
Tue 04:08:39 PM 39.3167 -119.6667 180° South 166 191 13,900 -50 Descending Northern Cal TRACON
Tue 04:09:39 PM 39.2667 -119.6833 194° South 164 189 13,900  Level Northern Cal TRACON
Tue 04:10:39 PM 39.2333 -119.6833 180° South 151 174 13,900 50 Level Northern Cal TRACON
Tue 04:11:39 PM 39.1833 -119.6833 180° South 146 168 14,000  Climbing Northern Cal TRACON
Tue 04:12:09 PM 39.1681 -119.6806 172° South 150 173 13,900  Descending Oakland Center
Tue 04:13:11 PM 39.1261 -119.6825 182° South 152 175 14,000  Climbing Oakland Center
Tue 04:14:12 PM 39.0817 -119.6864 184° South 158 182 13,900 -98 Descending Oakland Center
Tue 04:15:13 PM 39.0381 -119.6942 188° South 159 183 13,800  Descending Oakland Center
Tue 04:16:15 PM 38.9939 -119.7081 194° South 163 188 13,900 49 Climbing Oakland Center
Tue 04:17:16 PM 38.9511 -119.7228 195° South 162 186 13,900 49 Level Oakland Center
Tue 04:18:17 PM 38.9083 -119.7325 190° South 159 183 14,000  Climbing Oakland Center
Tue 04:19:19 PM 38.8550 -119.7367 183° South 160 184 13,900 -98 Descending Oakland Center
Tue 04:20:20 PM 38.8117 -119.7425 186° South 158 182 13,800  Descending Oakland Center
Tue 04:21:21 PM 38.7658 -119.7456 183° South 162 186 13,900 49 Climbing Oakland Center
Tue 04:22:23 PM 38.7208 -119.7442 179° South 161 185 13,900  Level Oakland Center
Tue 04:23:24 PM 38.6761 -119.7464 182° South 162 186 13,900 49 Level Oakland Center
Tue 04:24:25 PM 38.6311 -119.7467 180° South 161 185 14,000 49 Climbing Oakland Center
Tue 04:25:27 PM 38.5917 -119.7797 213° Southwest 172 198 14,000 -49 Level Oakland Center
Tue 04:26:28 PM 38.5472 -119.8047 204° Southwest 166 191 13,900  Descending Oakland Center
Tue 04:27:29 PM 38.5064 -119.8147 191° South 157 181 14,000 -49 Climbing Oakland Center
Tue 04:28:31 PM 38.4653 -119.8133 178° South 153 176 13,800 -98 Descending Oakland Center
Tue 04:29:32 PM 38.4206 -119.8142 181° South 156 180 13,800  Level Oakland Center
Tue 04:30:33 PM 38.3744 -119.8167 182° South 160 184 13,800  Level Oakland Center
Tue 04:31:35 PM 38.3333 -119.7953 158° South 167 192 13,800  Level Oakland Center
Tue 04:32:36 PM 38.2808 -119.7831 170° South 161 185 13,800 -148 Level Oakland Center
Tue 04:33:37 PM 38.2356 -119.7672 165° South 165 190 13,500 -244 Descending Oakland Center
Tue 04:34:39 PM 38.1878 -119.7594 173° South 169 194 13,300 -195 Descending Oakland Center
Tue 04:35:40 PM 38.1419 -119.7431 164° South 174 200 13,100 -148 Descending Oakland Center
Tue 04:36:41 PM 38.0961 -119.7267 164° South 173 199 13,000 -98 Descending Oakland Center
Tue 04:37:43 PM 38.0544 -119.7050 158° South 166 191 12,900 -49 Descending Oakland Center
Tue 04:38:44 PM 38.0128 -119.6900 164° South 158 182 12,900  Level Oakland Center
Tue 04:39:45 PM 37.9658 -119.6750 166° South 168 193 12,900 -49 Level Oakland Center
Tue 04:40:47 PM 37.9208 -119.6597 165° South 170 196 12,800 -293 Descending Oakland Center
Tue 04:41:48 PM 37.8708 -119.6422 165° South 180 207 12,300 -393 Descending Oakland Center
Tue 04:42:49 PM 37.8239 -119.6225 162° South 193 222 12,000 -443 Descending Oakland Center
Tue 04:43:50 PM 37.7683 -119.5914 156° South 188 216 11,400 -585 Descending Oakland Center
Tue 04:44:52 PM 37.7233 -119.5989 188° South 196 226 10,800 -439 Descending Oakland Center
Tue 04:45:53 PM 37.7075 -119.6672 254° West 189 217 10,500 -541 Descending Oakland Center
Tue 04:46:54 PM 37.6983 -119.7281 259° West 181 208 9,700 -787 Descending Oakland Center

Login

Don't have an account? Register now (free) for customized features, flight alerts, and more!